sensor_id;sensor_type;location;lat;lon;timestamp;P1;durP1;ratioP1;P2;durP2;ratioP2
67675;SDS011;54456;48.436;10.028;2023-10-13T07:52:18;9.95;;;4.00;;
67675;SDS011;54456;48.436;10.028;2023-10-13T08:11:24;12.60;;;5.18;;
67675;SDS011;54456;48.436;10.028;2023-10-13T08:12:54;12.40;;;4.50;;
67675;SDS011;54456;48.436;10.028;2023-10-13T08:14:26;16.05;;;5.10;;
67675;SDS011;54456;48.436;10.028;2023-10-13T08:16:03;15.55;;;4.55;;
67675;SDS011;54456;48.436;10.028;2023-10-13T08:17:41;12.15;;;4.63;;
67675;SDS011;54456;48.436;10.028;2023-10-13T08:19:14;11.95;;;4.40;;
67675;SDS011;54456;48.436;10.028;2023-10-13T08:20:46;13.30;;;4.60;;
67675;SDS011;54456;48.436;10.028;2023-10-13T08:22:17;12.52;;;4.30;;
67675;SDS011;54456;48.436;10.028;2023-10-13T08:23:51;13.67;;;4.70;;
67675;SDS011;54456;48.436;10.028;2023-10-13T08:25:24;14.40;;;4.75;;
67675;SDS011;54456;48.436;10.028;2023-10-13T08:27:16;14.48;;;4.93;;
67675;SDS011;54456;48.436;10.028;2023-10-13T08:29:18;12.40;;;5.10;;
67675;SDS011;54456;48.436;10.028;2023-10-13T08:30:49;11.83;;;4.67;;
67675;SDS011;54456;48.436;10.028;2023-10-13T08:33:56;11.10;;;4.30;;
67675;SDS011;54456;48.436;10.028;2023-10-13T08:35:36;10.88;;;4.72;;
67675;SDS011;54456;48.436;10.028;2023-10-13T08:37:08;11.38;;;4.45;;
67675;SDS011;54456;48.436;10.028;2023-10-13T08:38:58;13.50;;;4.53;;
67675;SDS011;54456;48.436;10.028;2023-10-13T08:40:46;15.73;;;4.43;;
67675;SDS011;54456;48.436;10.028;2023-10-13T08:42:39;12.60;;;4.20;;
67675;SDS011;54456;48.436;10.028;2023-10-13T08:44:09;12.65;;;4.47;;
67675;SDS011;54456;48.436;10.028;2023-10-13T08:46:00;13.10;;;4.25;;
67675;SDS011;54456;48.436;10.028;2023-10-13T08:47:36;11.55;;;3.75;;
67675;SDS011;54456;48.436;10.028;2023-10-13T08:49:08;10.60;;;3.83;;
67675;SDS011;54456;48.436;10.028;2023-10-13T08:50:50;11.13;;;3.80;;
67675;SDS011;54456;48.436;10.028;2023-10-13T08:52:21;10.77;;;3.78;;
67675;SDS011;54456;48.436;10.028;2023-10-13T08:54:12;10.50;;;3.85;;
67675;SDS011;54456;48.436;10.028;2023-10-13T08:55:49;12.13;;;4.07;;
67675;SDS011;54456;48.436;10.028;2023-10-13T08:57:32;10.75;;;3.80;;
67675;SDS011;54456;48.436;10.028;2023-10-13T08:59:05;12.20;;;4.20;;
67675;SDS011;54456;48.436;10.028;2023-10-13T09:00:36;9.25;;;3.67;;
67675;SDS011;54456;48.436;10.028;2023-10-13T09:02:25;11.85;;;3.70;;
67675;SDS011;54456;48.436;10.028;2023-10-13T09:06:02;13.43;;;3.67;;
67675;SDS011;54456;48.436;10.028;2023-10-13T09:07:44;8.63;;;3.80;;
67675;SDS011;54456;48.436;10.028;2023-10-13T09:09:17;12.32;;;3.53;;
67675;SDS011;54456;48.436;10.028;2023-10-13T09:11:06;11.30;;;3.63;;
67675;SDS011;54456;48.436;10.028;2023-10-13T09:12:42;9.52;;;3.90;;
67675;SDS011;54456;48.436;10.028;2023-10-13T09:14:30;11.43;;;3.55;;
67675;SDS011;54456;48.436;10.028;2023-10-13T09:16:09;10.10;;;3.50;;
67675;SDS011;54456;48.436;10.028;2023-10-13T09:17:47;10.93;;;3.78;;
67675;SDS011;54456;48.436;10.028;2023-10-13T09:19:28;9.02;;;3.58;;
67675;SDS011;54456;48.436;10.028;2023-10-13T09:21:07;11.95;;;3.78;;
67675;SDS011;54456;48.436;10.028;2023-10-13T09:22:56;9.82;;;3.42;;
67675;SDS011;54456;48.436;10.028;2023-10-13T09:24:32;9.75;;;3.38;;
67675;SDS011;54456;48.436;10.028;2023-10-13T09:26:06;9.77;;;3.58;;
67675;SDS011;54456;48.436;10.028;2023-10-13T09:27:39;12.10;;;3.50;;
67675;SDS011;54456;48.436;10.028;2023-10-13T09:29:16;10.32;;;3.40;;
67675;SDS011;54456;48.436;10.028;2023-10-13T09:30:48;10.77;;;3.55;;
67675;SDS011;54456;48.436;10.028;2023-10-13T09:32:22;10.52;;;3.42;;
67675;SDS011;54456;48.436;10.028;2023-10-13T09:33:53;11.90;;;3.50;;
67675;SDS011;54456;48.436;10.028;2023-10-13T09:35:25;10.80;;;3.53;;
67675;SDS011;54456;48.436;10.028;2023-10-13T09:37:00;10.77;;;3.60;;
67675;SDS011;54456;48.436;10.028;2023-10-13T09:38:35;10.25;;;3.30;;
67675;SDS011;54456;48.436;10.028;2023-10-13T09:40:06;11.60;;;3.78;;
67675;SDS011;54456;48.436;10.028;2023-10-13T09:41:55;10.25;;;3.58;;
67675;SDS011;54456;48.436;10.028;2023-10-13T09:43:29;9.63;;;3.42;;
67675;SDS011;54456;48.436;10.028;2023-10-13T09:45:01;7.68;;;3.03;;
67675;SDS011;54456;48.436;10.028;2023-10-13T09:46:37;9.07;;;3.15;;
67675;SDS011;54456;48.436;10.028;2023-10-13T09:48:11;9.30;;;3.10;;
67675;SDS011;54456;48.436;10.028;2023-10-13T09:49:51;8.73;;;3.17;;
67675;SDS011;54456;48.436;10.028;2023-10-13T09:51:27;8.82;;;3.50;;
67675;SDS011;54456;48.436;10.028;2023-10-13T09:52:58;8.77;;;3.20;;
67675;SDS011;54456;48.436;10.028;2023-10-13T09:54:36;9.00;;;3.25;;
67675;SDS011;54456;48.436;10.028;2023-10-13T09:57:45;9.00;;;3.17;;
67675;SDS011;54456;48.436;10.028;2023-10-13T09:59:21;10.07;;;3.47;;
67675;SDS011;54456;48.436;10.028;2023-10-13T10:00:56;10.93;;;3.28;;
67675;SDS011;54456;48.436;10.028;2023-10-13T10:02:56;8.70;;;2.80;;
67675;SDS011;54456;48.436;10.028;2023-10-13T10:04:28;10.63;;;3.22;;
67675;SDS011;54456;48.436;10.028;2023-10-13T10:06:00;10.80;;;3.33;;
67675;SDS011;54456;48.436;10.028;2023-10-13T10:07:44;7.85;;;2.90;;
67675;SDS011;54456;48.436;10.028;2023-10-13T10:09:28;10.73;;;3.10;;
67675;SDS011;54456;48.436;10.028;2023-10-13T10:12:57;11.13;;;3.28;;
67675;SDS011;54456;48.436;10.028;2023-10-13T10:14:45;8.68;;;3.00;;
67675;SDS011;54456;48.436;10.028;2023-10-13T10:18:17;8.90;;;2.92;;
67675;SDS011;54456;48.436;10.028;2023-10-13T10:19:55;8.85;;;2.70;;
67675;SDS011;54456;48.436;10.028;2023-10-13T10:21:36;8.70;;;3.08;;
67675;SDS011;54456;48.436;10.028;2023-10-13T10:23:07;9.85;;;2.97;;
67675;SDS011;54456;48.436;10.028;2023-10-13T10:24:42;13.02;;;3.10;;
67675;SDS011;54456;48.436;10.028;2023-10-13T10:26:14;8.38;;;2.80;;
67675;SDS011;54456;48.436;10.028;2023-10-13T10:27:56;11.30;;;3.20;;
67675;SDS011;54456;48.436;10.028;2023-10-13T10:29:27;12.05;;;3.08;;
67675;SDS011;54456;48.436;10.028;2023-10-13T10:31:05;10.55;;;3.03;;
67675;SDS011;54456;48.436;10.028;2023-10-13T10:32:42;8.20;;;2.92;;
67675;SDS011;54456;48.436;10.028;2023-10-13T10:34:18;9.60;;;3.00;;
67675;SDS011;54456;48.436;10.028;2023-10-13T10:35:58;9.60;;;2.78;;
67675;SDS011;54456;48.436;10.028;2023-10-13T10:37:31;9.02;;;2.85;;
67675;SDS011;54456;48.436;10.028;2023-10-13T10:39:04;11.55;;;3.10;;
67675;SDS011;54456;48.436;10.028;2023-10-13T10:40:35;11.48;;;2.95;;
67675;SDS011;54456;48.436;10.028;2023-10-13T10:42:17;8.27;;;2.88;;
67675;SDS011;54456;48.436;10.028;2023-10-13T10:43:53;13.15;;;3.10;;
67675;SDS011;54456;48.436;10.028;2023-10-13T10:45:23;9.48;;;3.03;;
67675;SDS011;54456;48.436;10.028;2023-10-13T10:46:55;11.35;;;3.17;;
67675;SDS011;54456;48.436;10.028;2023-10-13T10:48:31;11.80;;;3.10;;
67675;SDS011;54456;48.436;10.028;2023-10-13T10:50:04;9.05;;;3.10;;
67675;SDS011;54456;48.436;10.028;2023-10-13T10:51:40;12.60;;;3.55;;
67675;SDS011;54456;48.436;10.028;2023-10-13T10:53:14;8.88;;;2.83;;
67675;SDS011;54456;48.436;10.028;2023-10-13T10:54:45;7.77;;;3.17;;
67675;SDS011;54456;48.436;10.028;2023-10-13T10:56:25;10.75;;;2.67;;
67675;SDS011;54456;48.436;10.028;2023-10-13T10:58:06;8.05;;;2.97;;
67675;SDS011;54456;48.436;10.028;2023-10-13T10:59:40;9.88;;;3.00;;
67675;SDS011;54456;48.436;10.028;2023-10-13T11:01:10;8.88;;;2.67;;
67675;SDS011;54456;48.436;10.028;2023-10-13T11:02:41;7.60;;;2.58;;
67675;SDS011;54456;48.436;10.028;2023-10-13T11:04:12;13.00;;;2.93;;
67675;SDS011;54456;48.436;10.028;2023-10-13T11:05:52;8.95;;;3.03;;
67675;SDS011;54456;48.436;10.028;2023-10-13T11:07:23;8.73;;;2.80;;
67675;SDS011;54456;48.436;10.028;2023-10-13T11:09:03;9.30;;;2.72;;
67675;SDS011;54456;48.436;10.028;2023-10-13T11:10:45;8.45;;;2.92;;
67675;SDS011;54456;48.436;10.028;2023-10-13T11:12:16;8.52;;;3.08;;
67675;SDS011;54456;48.436;10.028;2023-10-13T11:13:53;9.68;;;3.33;;
67675;SDS011;54456;48.436;10.028;2023-10-13T11:15:24;8.63;;;2.95;;
67675;SDS011;54456;48.436;10.028;2023-10-13T11:17:03;8.25;;;3.00;;
67675;SDS011;54456;48.436;10.028;2023-10-13T11:18:36;7.40;;;2.83;;
67675;SDS011;54456;48.436;10.028;2023-10-13T11:20:13;10.55;;;2.67;;
67675;SDS011;54456;48.436;10.028;2023-10-13T11:21:47;9.43;;;2.90;;
67675;SDS011;54456;48.436;10.028;2023-10-13T11:24:55;8.43;;;2.88;;
67675;SDS011;54456;48.436;10.028;2023-10-13T11:26:35;11.07;;;2.83;;
67675;SDS011;54456;48.436;10.028;2023-10-13T11:28:19;10.77;;;2.80;;
67675;SDS011;54456;48.436;10.028;2023-10-13T11:29:50;7.03;;;2.45;;
67675;SDS011;54456;48.436;10.028;2023-10-13T11:31:22;11.82;;;3.00;;
67675;SDS011;54456;48.436;10.028;2023-10-13T11:32:57;9.95;;;2.60;;
67675;SDS011;54456;48.436;10.028;2023-10-13T11:34:35;9.10;;;2.78;;
67675;SDS011;54456;48.436;10.028;2023-10-13T11:36:11;10.55;;;2.78;;
67675;SDS011;54456;48.436;10.028;2023-10-13T11:37:51;8.63;;;2.75;;
67675;SDS011;54456;48.436;10.028;2023-10-13T11:39:43;10.52;;;2.67;;
67675;SDS011;54456;48.436;10.028;2023-10-13T11:41:14;12.02;;;2.70;;
67675;SDS011;54456;48.436;10.028;2023-10-13T11:42:45;10.73;;;2.78;;
67675;SDS011;54456;48.436;10.028;2023-10-13T11:44:17;11.45;;;2.70;;
67675;SDS011;54456;48.436;10.028;2023-10-13T11:45:47;10.87;;;2.70;;
67675;SDS011;54456;48.436;10.028;2023-10-13T11:47:37;10.38;;;2.63;;
67675;SDS011;54456;48.436;10.028;2023-10-13T11:49:29;9.32;;;2.50;;
67675;SDS011;54456;48.436;10.028;2023-10-13T11:51:00;9.82;;;2.50;;
67675;SDS011;54456;48.436;10.028;2023-10-13T11:52:32;9.98;;;2.60;;
67675;SDS011;54456;48.436;10.028;2023-10-13T11:54:02;9.15;;;2.80;;
67675;SDS011;54456;48.436;10.028;2023-10-13T11:55:32;10.65;;;3.00;;
67675;SDS011;54456;48.436;10.028;2023-10-13T11:57:03;9.43;;;2.57;;
67675;SDS011;54456;48.436;10.028;2023-10-13T11:58:33;7.57;;;2.70;;
67675;SDS011;54456;48.436;10.028;2023-10-13T12:00:04;9.52;;;2.63;;
67675;SDS011;54456;48.436;10.028;2023-10-13T12:02:07;11.00;;;3.10;;
67675;SDS011;54456;48.436;10.028;2023-10-13T12:03:43;8.98;;;2.67;;
67675;SDS011;54456;48.436;10.028;2023-10-13T12:05:33;10.98;;;2.75;;
67675;SDS011;54456;48.436;10.028;2023-10-13T12:07:19;8.30;;;2.58;;
67675;SDS011;54456;48.436;10.028;2023-10-13T12:08:50;9.55;;;2.60;;
67675;SDS011;54456;48.436;10.028;2023-10-13T12:10:21;8.75;;;2.78;;
67675;SDS011;54456;48.436;10.028;2023-10-13T12:12:09;9.13;;;2.80;;
67675;SDS011;54456;48.436;10.028;2023-10-13T12:13:39;8.70;;;2.83;;
67675;SDS011;54456;48.436;10.028;2023-10-13T12:15:09;9.43;;;2.80;;
67675;SDS011;54456;48.436;10.028;2023-10-13T12:16:48;7.15;;;2.30;;
67675;SDS011;54456;48.436;10.028;2023-10-13T12:18:21;9.10;;;3.00;;
67675;SDS011;54456;48.436;10.028;2023-10-13T12:19:56;8.55;;;2.80;;
67675;SDS011;54456;48.436;10.028;2023-10-13T12:21:29;12.73;;;3.00;;
67675;SDS011;54456;48.436;10.028;2023-10-13T12:23:00;8.48;;;3.03;;
67675;SDS011;54456;48.436;10.028;2023-10-13T12:24:39;9.65;;;2.60;;
67675;SDS011;54456;48.436;10.028;2023-10-13T12:26:10;9.93;;;2.60;;
67675;SDS011;54456;48.436;10.028;2023-10-13T12:27:49;10.43;;;2.83;;
67675;SDS011;54456;48.436;10.028;2023-10-13T12:29:22;8.65;;;2.97;;
67675;SDS011;54456;48.436;10.028;2023-10-13T12:31:02;7.85;;;2.70;;
67675;SDS011;54456;48.436;10.028;2023-10-13T12:32:36;8.68;;;2.60;;
67675;SDS011;54456;48.436;10.028;2023-10-13T12:34:07;9.45;;;3.08;;
67675;SDS011;54456;48.436;10.028;2023-10-13T12:35:44;10.65;;;2.83;;
67675;SDS011;54456;48.436;10.028;2023-10-13T12:37:15;7.82;;;2.42;;
67675;SDS011;54456;48.436;10.028;2023-10-13T12:39:04;10.45;;;2.95;;
67675;SDS011;54456;48.436;10.028;2023-10-13T12:40:37;9.75;;;2.78;;
67675;SDS011;54456;48.436;10.028;2023-10-13T12:42:25;9.30;;;2.67;;
67675;SDS011;54456;48.436;10.028;2023-10-13T12:44:14;9.05;;;2.60;;
67675;SDS011;54456;48.436;10.028;2023-10-13T12:46:03;9.48;;;2.83;;
67675;SDS011;54456;48.436;10.028;2023-10-13T12:47:52;8.13;;;2.63;;
67675;SDS011;54456;48.436;10.028;2023-10-13T12:49:41;9.82;;;2.72;;
67675;SDS011;54456;48.436;10.028;2023-10-13T12:51:11;9.57;;;2.70;;
67675;SDS011;54456;48.436;10.028;2023-10-13T12:53:10;8.60;;;3.08;;
67675;SDS011;54456;48.436;10.028;2023-10-13T12:54:44;10.35;;;2.72;;
67675;SDS011;54456;48.436;10.028;2023-10-13T12:56:28;9.63;;;2.75;;
67675;SDS011;54456;48.436;10.028;2023-10-13T12:57:58;10.10;;;3.10;;
67675;SDS011;54456;48.436;10.028;2023-10-13T12:59:29;9.57;;;3.10;;
67675;SDS011;54456;48.436;10.028;2023-10-13T13:01:00;10.03;;;2.40;;
67675;SDS011;54456;48.436;10.028;2023-10-13T13:02:36;9.95;;;2.55;;
67675;SDS011;54456;48.436;10.028;2023-10-13T13:04:11;10.55;;;3.03;;
67675;SDS011;54456;48.436;10.028;2023-10-13T13:05:46;8.20;;;2.53;;
67675;SDS011;54456;48.436;10.028;2023-10-13T13:07:18;8.68;;;2.42;;
67675;SDS011;54456;48.436;10.028;2023-10-13T13:08:48;7.60;;;2.63;;
67675;SDS011;54456;48.436;10.028;2023-10-13T13:10:18;10.57;;;2.50;;
67675;SDS011;54456;48.436;10.028;2023-10-13T13:11:49;9.00;;;2.63;;
67675;SDS011;54456;48.436;10.028;2023-10-13T13:13:19;9.83;;;2.63;;
67675;SDS011;54456;48.436;10.028;2023-10-13T13:14:54;7.82;;;2.63;;
67675;SDS011;54456;48.436;10.028;2023-10-13T13:16:25;8.82;;;2.40;;
67675;SDS011;54456;48.436;10.028;2023-10-13T13:18:00;8.82;;;2.90;;
67675;SDS011;54456;48.436;10.028;2023-10-13T13:19:39;9.57;;;2.60;;
67675;SDS011;54456;48.436;10.028;2023-10-13T13:21:10;9.48;;;2.90;;
67675;SDS011;54456;48.436;10.028;2023-10-13T13:22:50;7.18;;;2.72;;
67675;SDS011;54456;48.436;10.028;2023-10-13T13:24:20;7.90;;;2.53;;
67675;SDS011;54456;48.436;10.028;2023-10-13T13:25:51;9.85;;;3.42;;
67675;SDS011;54456;48.436;10.028;2023-10-13T13:27:22;7.40;;;2.70;;
67675;SDS011;54456;48.436;10.028;2023-10-13T13:28:54;9.38;;;2.78;;
67675;SDS011;54456;48.436;10.028;2023-10-13T13:30:25;12.50;;;2.88;;
67675;SDS011;54456;48.436;10.028;2023-10-13T13:32:03;9.60;;;2.75;;
67675;SDS011;54456;48.436;10.028;2023-10-13T13:33:35;7.32;;;2.78;;
67675;SDS011;54456;48.436;10.028;2023-10-13T13:36:43;9.57;;;2.65;;
67675;SDS011;54456;48.436;10.028;2023-10-13T13:38:14;7.93;;;2.80;;
67675;SDS011;54456;48.436;10.028;2023-10-13T13:39:57;7.32;;;2.92;;
67675;SDS011;54456;48.436;10.028;2023-10-13T13:41:44;10.30;;;2.90;;
67675;SDS011;54456;48.436;10.028;2023-10-13T13:43:15;8.68;;;2.97;;
67675;SDS011;54456;48.436;10.028;2023-10-13T13:45:01;9.45;;;2.78;;
67675;SDS011;54456;48.436;10.028;2023-10-13T13:46:31;8.57;;;2.93;;
67675;SDS011;54456;48.436;10.028;2023-10-13T13:48:10;10.40;;;2.92;;
67675;SDS011;54456;48.436;10.028;2023-10-13T13:49:45;8.55;;;3.15;;
67675;SDS011;54456;48.436;10.028;2023-10-13T13:51:21;7.35;;;2.42;;
67675;SDS011;54456;48.436;10.028;2023-10-13T13:52:57;12.50;;;2.97;;
67675;SDS011;54456;48.436;10.028;2023-10-13T13:54:29;11.68;;;2.95;;
67675;SDS011;54456;48.436;10.028;2023-10-13T13:56:00;9.18;;;2.88;;
67675;SDS011;54456;48.436;10.028;2023-10-13T13:57:31;7.00;;;2.85;;
67675;SDS011;54456;48.436;10.028;2023-10-13T13:59:01;8.02;;;2.80;;
67675;SDS011;54456;48.436;10.028;2023-10-13T14:00:38;7.43;;;2.80;;
67675;SDS011;54456;48.436;10.028;2023-10-13T14:02:12;8.60;;;2.85;;
67675;SDS011;54456;48.436;10.028;2023-10-13T14:03:52;7.85;;;2.42;;
67675;SDS011;54456;48.436;10.028;2023-10-13T14:05:26;9.35;;;2.75;;
67675;SDS011;54456;48.436;10.028;2023-10-13T14:06:57;9.82;;;3.10;;
67675;SDS011;54456;48.436;10.028;2023-10-13T14:08:27;8.13;;;2.63;;
67675;SDS011;54456;48.436;10.028;2023-10-13T14:09:58;9.40;;;2.50;;
67675;SDS011;54456;48.436;10.028;2023-10-13T14:11:36;8.73;;;2.83;;
67675;SDS011;54456;48.436;10.028;2023-10-13T14:13:09;11.32;;;3.03;;
67675;SDS011;54456;48.436;10.028;2023-10-13T14:14:46;9.15;;;2.80;;
67675;SDS011;54456;48.436;10.028;2023-10-13T14:16:25;6.18;;;2.40;;
67675;SDS011;54456;48.436;10.028;2023-10-13T14:17:56;7.93;;;2.63;;
67675;SDS011;54456;48.436;10.028;2023-10-13T14:19:27;9.23;;;2.83;;
67675;SDS011;54456;48.436;10.028;2023-10-13T14:20:58;21.85;;;3.20;;
67675;SDS011;54456;48.436;10.028;2023-10-13T14:22:33;8.65;;;3.10;;
67675;SDS011;54456;48.436;10.028;2023-10-13T14:24:07;10.88;;;2.50;;
67675;SDS011;54456;48.436;10.028;2023-10-13T14:25:43;11.48;;;2.65;;
67675;SDS011;54456;48.436;10.028;2023-10-13T14:27:16;8.50;;;2.70;;
67675;SDS011;54456;48.436;10.028;2023-10-13T14:28:49;10.43;;;3.10;;
67675;SDS011;54456;48.436;10.028;2023-10-13T14:30:30;11.40;;;2.67;;
67675;SDS011;54456;48.436;10.028;2023-10-13T14:32:01;8.02;;;2.60;;
67675;SDS011;54456;48.436;10.028;2023-10-13T14:33:32;8.77;;;3.15;;
67675;SDS011;54456;48.436;10.028;2023-10-13T14:35:02;8.82;;;2.85;;
67675;SDS011;54456;48.436;10.028;2023-10-13T14:36:44;11.05;;;3.38;;
67675;SDS011;54456;48.436;10.028;2023-10-13T14:38:18;8.88;;;3.03;;
67675;SDS011;54456;48.436;10.028;2023-10-13T14:39:48;8.55;;;3.13;;
67675;SDS011;54456;48.436;10.028;2023-10-13T14:41:19;7.90;;;2.53;;
67675;SDS011;54456;48.436;10.028;2023-10-13T14:42:49;10.07;;;3.80;;
67675;SDS011;54456;48.436;10.028;2023-10-13T14:44:19;10.70;;;3.40;;
67675;SDS011;54456;48.436;10.028;2023-10-13T14:45:55;8.07;;;2.90;;
67675;SDS011;54456;48.436;10.028;2023-10-13T14:47:25;12.03;;;2.90;;
67675;SDS011;54456;48.436;10.028;2023-10-13T14:48:55;9.60;;;2.85;;
67675;SDS011;54456;48.436;10.028;2023-10-13T14:50:26;8.43;;;3.10;;
67675;SDS011;54456;48.436;10.028;2023-10-13T14:51:58;7.60;;;2.78;;
67675;SDS011;54456;48.436;10.028;2023-10-13T14:53:29;8.93;;;2.78;;
67675;SDS011;54456;48.436;10.028;2023-10-13T14:55:01;8.70;;;3.15;;
67675;SDS011;54456;48.436;10.028;2023-10-13T14:56:37;9.23;;;3.00;;
67675;SDS011;54456;48.436;10.028;2023-10-13T14:58:07;11.68;;;3.05;;
67675;SDS011;54456;48.436;10.028;2023-10-13T14:59:38;7.35;;;2.80;;
67675;SDS011;54456;48.436;10.028;2023-10-13T15:01:15;8.45;;;2.83;;
67675;SDS011;54456;48.436;10.028;2023-10-13T15:02:46;10.43;;;2.85;;
67675;SDS011;54456;48.436;10.028;2023-10-13T15:04:17;9.40;;;2.83;;
67675;SDS011;54456;48.436;10.028;2023-10-13T15:05:47;9.48;;;3.33;;
67675;SDS011;54456;48.436;10.028;2023-10-13T15:07:17;10.43;;;3.05;;
67675;SDS011;54456;48.436;10.028;2023-10-13T15:08:49;10.40;;;2.83;;
67675;SDS011;54456;48.436;10.028;2023-10-13T15:10:20;11.40;;;2.92;;
67675;SDS011;54456;48.436;10.028;2023-10-13T15:11:50;8.93;;;3.03;;
67675;SDS011;54456;48.436;10.028;2023-10-13T15:13:23;8.18;;;2.97;;
67675;SDS011;54456;48.436;10.028;2023-10-13T15:14:54;7.75;;;2.67;;
67675;SDS011;54456;48.436;10.028;2023-10-13T15:16:26;10.13;;;3.00;;
67675;SDS011;54456;48.436;10.028;2023-10-13T15:17:59;6.95;;;2.80;;
67675;SDS011;54456;48.436;10.028;2023-10-13T15:19:31;8.23;;;2.92;;
67675;SDS011;54456;48.436;10.028;2023-10-13T15:21:05;13.13;;;3.65;;
67675;SDS011;54456;48.436;10.028;2023-10-13T15:22:38;9.13;;;2.90;;
67675;SDS011;54456;48.436;10.028;2023-10-13T15:24:09;10.27;;;3.33;;
67675;SDS011;54456;48.436;10.028;2023-10-13T15:25:51;10.27;;;3.03;;
67675;SDS011;54456;48.436;10.028;2023-10-13T15:27:21;10.30;;;3.13;;
67675;SDS011;54456;48.436;10.028;2023-10-13T15:28:52;9.25;;;2.65;;
67675;SDS011;54456;48.436;10.028;2023-10-13T15:30:28;10.88;;;3.00;;
67675;SDS011;54456;48.436;10.028;2023-10-13T15:32:14;7.05;;;3.15;;
67675;SDS011;54456;48.436;10.028;2023-10-13T15:33:49;9.43;;;3.27;;
67675;SDS011;54456;48.436;10.028;2023-10-13T15:35:22;8.20;;;3.03;;
67675;SDS011;54456;48.436;10.028;2023-10-13T15:36:53;8.50;;;2.97;;
67675;SDS011;54456;48.436;10.028;2023-10-13T15:38:25;9.80;;;3.10;;
67675;SDS011;54456;48.436;10.028;2023-10-13T15:39:59;10.30;;;3.42;;
67675;SDS011;54456;48.436;10.028;2023-10-13T15:41:30;10.48;;;3.25;;
67675;SDS011;54456;48.436;10.028;2023-10-13T15:43:03;9.75;;;2.90;;
67675;SDS011;54456;48.436;10.028;2023-10-13T15:44:35;9.05;;;3.00;;
67675;SDS011;54456;48.436;10.028;2023-10-13T15:46:08;8.83;;;3.00;;
67675;SDS011;54456;48.436;10.028;2023-10-13T15:47:45;10.32;;;2.95;;
67675;SDS011;54456;48.436;10.028;2023-10-13T15:49:16;8.25;;;3.22;;
67675;SDS011;54456;48.436;10.028;2023-10-13T15:50:46;10.33;;;3.50;;
67675;SDS011;54456;48.436;10.028;2023-10-13T15:52:19;8.73;;;3.08;;
67675;SDS011;54456;48.436;10.028;2023-10-13T15:53:50;11.13;;;3.42;;
67675;SDS011;54456;48.436;10.028;2023-10-13T15:55:21;12.05;;;3.58;;
67675;SDS011;54456;48.436;10.028;2023-10-13T15:56:52;10.02;;;3.00;;
67675;SDS011;54456;48.436;10.028;2023-10-13T15:58:22;9.05;;;3.20;;
67675;SDS011;54456;48.436;10.028;2023-10-13T15:59:56;10.00;;;3.25;;
67675;SDS011;54456;48.436;10.028;2023-10-13T16:01:27;9.75;;;3.20;;
67675;SDS011;54456;48.436;10.028;2023-10-13T16:02:58;10.38;;;3.45;;
67675;SDS011;54456;48.436;10.028;2023-10-13T16:04:28;9.03;;;3.20;;
67675;SDS011;54456;48.436;10.028;2023-10-13T16:06:02;12.75;;;3.38;;
67675;SDS011;54456;48.436;10.028;2023-10-13T16:07:34;11.40;;;3.20;;
67675;SDS011;54456;48.436;10.028;2023-10-13T16:09:04;9.07;;;2.90;;
67675;SDS011;54456;48.436;10.028;2023-10-13T16:10:43;8.45;;;2.92;;
67675;SDS011;54456;48.436;10.028;2023-10-13T16:12:14;11.43;;;3.60;;
67675;SDS011;54456;48.436;10.028;2023-10-13T16:13:45;10.20;;;2.92;;
67675;SDS011;54456;48.436;10.028;2023-10-13T16:15:20;10.18;;;3.25;;
67675;SDS011;54456;48.436;10.028;2023-10-13T16:16:51;9.05;;;2.97;;
67675;SDS011;54456;48.436;10.028;2023-10-13T16:18:24;11.65;;;3.38;;
67675;SDS011;54456;48.436;10.028;2023-10-13T16:19:54;7.93;;;3.00;;
67675;SDS011;54456;48.436;10.028;2023-10-13T16:21:25;10.17;;;3.30;;
67675;SDS011;54456;48.436;10.028;2023-10-13T16:22:55;11.37;;;3.10;;
67675;SDS011;54456;48.436;10.028;2023-10-13T16:24:26;9.90;;;3.55;;
67675;SDS011;54456;48.436;10.028;2023-10-13T16:25:57;10.57;;;2.97;;
67675;SDS011;54456;48.436;10.028;2023-10-13T16:27:31;9.95;;;3.13;;
67675;SDS011;54456;48.436;10.028;2023-10-13T16:29:01;13.30;;;3.30;;
67675;SDS011;54456;48.436;10.028;2023-10-13T16:30:32;8.63;;;3.70;;
67675;SDS011;54456;48.436;10.028;2023-10-13T16:32:02;11.87;;;3.23;;
67675;SDS011;54456;48.436;10.028;2023-10-13T16:33:36;8.32;;;2.90;;
67675;SDS011;54456;48.436;10.028;2023-10-13T16:35:07;12.73;;;3.15;;
67675;SDS011;54456;48.436;10.028;2023-10-13T16:36:37;10.27;;;2.97;;
67675;SDS011;54456;48.436;10.028;2023-10-13T16:38:08;7.80;;;3.22;;
67675;SDS011;54456;48.436;10.028;2023-10-13T16:39:38;11.80;;;3.63;;
67675;SDS011;54456;48.436;10.028;2023-10-13T16:41:09;13.90;;;3.50;;
67675;SDS011;54456;48.436;10.028;2023-10-13T16:42:42;11.40;;;3.10;;
67675;SDS011;54456;48.436;10.028;2023-10-13T16:44:12;11.45;;;2.92;;
67675;SDS011;54456;48.436;10.028;2023-10-13T16:45:43;10.15;;;3.30;;
67675;SDS011;54456;48.436;10.028;2023-10-13T16:47:17;11.50;;;3.30;;
67675;SDS011;54456;48.436;10.028;2023-10-13T16:48:47;10.03;;;3.10;;
67675;SDS011;54456;48.436;10.028;2023-10-13T16:50:20;10.40;;;3.50;;
67675;SDS011;54456;48.436;10.028;2023-10-13T16:51:51;7.35;;;2.97;;
67675;SDS011;54456;48.436;10.028;2023-10-13T16:53:22;8.07;;;3.10;;
67675;SDS011;54456;48.436;10.028;2023-10-13T16:54:52;8.40;;;2.92;;
67675;SDS011;54456;48.436;10.028;2023-10-13T16:56:23;9.88;;;4.18;;
67675;SDS011;54456;48.436;10.028;2023-10-13T16:57:53;10.80;;;3.25;;
67675;SDS011;54456;48.436;10.028;2023-10-13T16:59:24;10.77;;;3.20;;
67675;SDS011;54456;48.436;10.028;2023-10-13T17:00:56;10.13;;;3.50;;
67675;SDS011;54456;48.436;10.028;2023-10-13T17:02:26;11.90;;;3.20;;
67675;SDS011;54456;48.436;10.028;2023-10-13T17:03:56;9.53;;;3.40;;
67675;SDS011;54456;48.436;10.028;2023-10-13T17:05:27;8.85;;;3.30;;
67675;SDS011;54456;48.436;10.028;2023-10-13T17:06:57;9.57;;;3.07;;
67675;SDS011;54456;48.436;10.028;2023-10-13T17:08:28;10.82;;;3.25;;
67675;SDS011;54456;48.436;10.028;2023-10-13T17:09:59;13.20;;;3.72;;
67675;SDS011;54456;48.436;10.028;2023-10-13T17:11:32;10.95;;;3.50;;
67675;SDS011;54456;48.436;10.028;2023-10-13T17:13:03;9.48;;;3.53;;
67675;SDS011;54456;48.436;10.028;2023-10-13T17:14:36;10.80;;;3.60;;
67675;SDS011;54456;48.436;10.028;2023-10-13T17:16:12;12.23;;;3.90;;
67675;SDS011;54456;48.436;10.028;2023-10-13T17:17:43;9.68;;;3.22;;
67675;SDS011;54456;48.436;10.028;2023-10-13T17:19:14;11.93;;;3.90;;
67675;SDS011;54456;48.436;10.028;2023-10-13T17:20:44;9.43;;;3.70;;
67675;SDS011;54456;48.436;10.028;2023-10-13T17:22:15;11.05;;;3.33;;
67675;SDS011;54456;48.436;10.028;2023-10-13T17:23:47;11.43;;;3.33;;
67675;SDS011;54456;48.436;10.028;2023-10-13T17:25:21;11.82;;;3.50;;
67675;SDS011;54456;48.436;10.028;2023-10-13T17:26:52;10.55;;;3.40;;
67675;SDS011;54456;48.436;10.028;2023-10-13T17:28:23;8.52;;;3.42;;
67675;SDS011;54456;48.436;10.028;2023-10-13T17:29:54;9.98;;;3.42;;
67675;SDS011;54456;48.436;10.028;2023-10-13T17:31:25;14.93;;;4.10;;
67675;SDS011;54456;48.436;10.028;2023-10-13T17:32:57;11.65;;;4.22;;
67675;SDS011;54456;48.436;10.028;2023-10-13T17:34:27;14.37;;;4.63;;
67675;SDS011;54456;48.436;10.028;2023-10-13T17:35:58;11.18;;;4.32;;
67675;SDS011;54456;48.436;10.028;2023-10-13T17:37:29;13.20;;;4.88;;
67675;SDS011;54456;48.436;10.028;2023-10-13T17:39:00;14.35;;;4.60;;
67675;SDS011;54456;48.436;10.028;2023-10-13T17:40:30;14.18;;;3.92;;